Time;durP1;ratioP1;P1;durP2;ratioP2;P2;SDS_P1;SDS_P2;PMS_P1;PMS_P2;Temp;Humidity;BMP_temperature;BMP_pressure;BME280_temperature;BME280_humidity;BME280_pressure;Samples;Min_cycle;Max_cycle;Signal;HPM_P1;HPM_P2
2023/01/25 00:00:18;;;;;;;28.50;12.30;;;;;;;;;;6336720;22;20027;-84
2023/01/25 00:02:44;;;;;;;28.15;12.68;;;;;;;;;;6337314;22;20110;-84
2023/01/25 00:05:11;;;;;;;27.88;13.35;;;;;;;;;;6338489;22;20051;-87
2023/01/25 00:07:37;;;;;;;29.52;13.60;;;;;;;;;;6310915;22;20038;-85
2023/01/25 00:10:03;;;;;;;28.02;12.95;;;;;;;;;;6338711;22;20098;-85
2023/01/25 00:12:30;;;;;;;28.17;13.07;;;;;;;;;;6339141;22;20065;-84
2023/01/25 00:14:56;;;;;;;32.72;14.45;;;;;;;;;;6337595;22;20094;-84
2023/01/25 00:17:23;;;;;;;30.50;13.95;;;;;;;;;;6338168;22;20055;-85
2023/01/25 00:19:49;;;;;;;27.98;12.43;;;;;;;;;;6337823;22;20023;-84
2023/01/25 00:22:15;;;;;;;31.90;13.32;;;;;;;;;;6310398;22;20024;-84
2023/01/25 00:24:42;;;;;;;27.70;12.15;;;;;;;;;;6338203;22;20125;-87
2023/01/25 00:27:08;;;;;;;29.25;13.73;;;;;;;;;;6337730;22;20027;-87
2023/01/25 00:29:34;;;;;;;30.15;13.82;;;;;;;;;;6337940;22;20045;-84
2023/01/25 00:32:08;;;;;;;31.42;13.60;;;;;;;;;;6337754;22;20023;-84
2023/01/25 00:34:43;;;;;;;30.70;13.07;;;;;;;;;;6310430;22;20830;-84
2023/01/25 00:37:19;;;;;;;30.15;13.45;;;;;;;;;;6337868;22;20023;-84
2023/01/25 00:39:46;;;;;;;28.30;12.98;;;;;;;;;;6337745;22;20198;-84
2023/01/25 00:42:13;;;;;;;32.08;14.20;;;;;;;;;;6337475;22;20019;-84
2023/01/25 00:44:40;;;;;;;31.10;13.80;;;;;;;;;;6337802;22;20058;-85
2023/01/25 00:47:06;;;;;;;31.83;14.77;;;;;;;;;;6337476;22;20436;-83
2023/01/25 00:49:32;;;;;;;33.00;14.60;;;;;;;;;;6336940;22;20023;-85
2023/01/25 00:51:59;;;;;;;31.70;13.82;;;;;;;;;;6338098;22;20051;-84
2023/01/25 00:54:25;;;;;;;33.08;14.40;;;;;;;;;;6309844;22;20034;-85
2023/01/25 00:56:52;;;;;;;32.53;15.05;;;;;;;;;;6310812;22;20105;-84
2023/01/25 00:59:19;;;;;;;29.83;14.90;;;;;;;;;;6336846;22;20027;-84
2023/01/25 01:01:45;;;;;;;35.50;14.95;;;;;;;;;;6337194;22;20531;-84
2023/01/25 01:04:12;;;;;;;32.22;14.18;;;;;;;;;;6335777;22;20062;-85
2023/01/25 01:06:39;;;;;;;32.05;14.43;;;;;;;;;;6336559;22;20035;-85
2023/01/25 01:09:06;;;;;;;29.83;14.30;;;;;;;;;;6336348;22;20023;-84
2023/01/25 01:11:32;;;;;;;33.45;14.68;;;;;;;;;;6336296;22;20019;-84
2023/01/25 01:13:59;;;;;;;30.90;14.00;;;;;;;;;;6335453;22;20035;-85
2023/01/25 01:16:25;;;;;;;31.15;14.63;;;;;;;;;;6336095;22;20066;-85
2023/01/25 01:18:52;;;;;;;30.60;13.75;;;;;;;;;;6309034;22;20023;-83
2023/01/25 01:21:19;;;;;;;31.20;14.43;;;;;;;;;;6308125;22;20529;-83
2023/01/25 01:23:45;;;;;;;35.67;14.07;;;;;;;;;;6336121;22;20030;-87
2023/01/25 01:26:12;;;;;;;33.70;14.73;;;;;;;;;;6336150;22;20031;-86
2023/01/25 01:28:39;;;;;;;29.83;13.48;;;;;;;;;;6336009;22;20109;-84
2023/01/25 01:31:07;;;;;;;33.15;15.07;;;;;;;;;;6336066;22;20023;-87
2023/01/25 01:33:33;;;;;;;36.05;13.88;;;;;;;;;;6308478;22;20031;-87
2023/01/25 01:36:11;;;;;;;32.35;14.27;;;;;;;;;;6336010;22;20073;-84
2023/01/25 01:38:37;;;;;;;30.70;14.52;;;;;;;;;;6335899;22;20023;-83
2023/01/25 01:41:04;;;;;;;35.58;15.00;;;;;;;;;;6336547;22;20110;-83
2023/01/25 01:43:30;;;;;;;31.77;15.05;;;;;;;;;;6335855;22;20959;-84
2023/01/25 01:45:59;;;;;;;32.10;14.00;;;;;;;;;;6335794;22;20027;-84
2023/01/25 01:48:31;;;;;;;32.97;14.73;;;;;;;;;;6307690;22;20099;-84
2023/01/25 01:51:04;;;;;;;34.53;14.52;;;;;;;;;;6335900;22;20610;-84
2023/01/25 01:53:31;;;;;;;32.50;14.77;;;;;;;;;;6336290;22;20027;-84
2023/01/25 01:55:59;;;;;;;33.88;14.75;;;;;;;;;;6335681;22;20011;-85
2023/01/25 01:58:26;;;;;;;34.80;15.00;;;;;;;;;;6335834;22;20029;-84
2023/01/25 02:00:52;;;;;;;31.13;14.07;;;;;;;;;;6335720;22;20034;-84
2023/01/25 02:03:19;;;;;;;32.03;14.70;;;;;;;;;;6335703;22;20020;-83
2023/01/25 02:05:57;;;;;;;31.45;13.80;;;;;;;;;;6308198;22;20099;-85
2023/01/25 02:08:23;;;;;;;36.58;14.13;;;;;;;;;;6335809;22;20029;-84
2023/01/25 02:10:50;;;;;;;30.55;13.82;;;;;;;;;;6336223;22;20027;-85
2023/01/25 02:13:20;;;;;;;33.05;15.02;;;;;;;;;;6336039;22;20038;-84
2023/01/25 02:15:48;;;;;;;29.23;14.65;;;;;;;;;;6308376;22;20475;-84
2023/01/25 02:18:16;;;;;;;34.72;15.07;;;;;;;;;;6334883;22;20034;-84
2023/01/25 02:20:43;;;;;;;31.00;14.70;;;;;;;;;;6335809;22;20807;-84
2023/01/25 02:23:28;;;;;;;32.85;15.02;;;;;;;;;;6336052;22;20026;-84
2023/01/25 02:25:56;;;;;;;38.80;15.63;;;;;;;;;;6335278;22;20027;-84
2023/01/25 02:28:38;;;;;;;34.15;15.10;;;;;;;;;;6307126;22;20106;-86
2023/01/25 02:31:05;;;;;;;31.45;14.00;;;;;;;;;;6335913;22;20020;-86
2023/01/25 02:33:31;;;;;;;35.13;14.45;;;;;;;;;;6335817;22;20731;-85
2023/01/25 02:36:07;;;;;;;29.98;13.18;;;;;;;;;;6335230;22;20054;-84
2023/01/25 02:39:06;;;;;;;29.60;14.35;;;;;;;;;;6335089;22;20030;-84
2023/01/25 02:41:37;;;;;;;31.73;14.43;;;;;;;;;;6249798;22;20023;-83
2023/01/25 02:44:03;;;;;;;;;;;;;;;;;;6308621;22;20064;-87
2023/01/25 02:46:32;;;;;;;32.35;14.80;;;;;;;;;;6307218;22;44792;-86
2023/01/25 02:48:59;;;;;;;32.50;14.93;;;;;;;;;;6334346;22;20019;-84
2023/01/25 02:51:27;;;;;;;34.72;16.42;;;;;;;;;;6307972;22;20513;-84
2023/01/25 02:53:53;;;;;;;34.20;16.05;;;;;;;;;;6307688;22;20027;-84
2023/01/25 02:56:20;;;;;;;34.33;14.50;;;;;;;;;;6307530;22;20534;-84
2023/01/25 02:58:47;;;;;;;38.63;15.73;;;;;;;;;;6334678;22;20023;-87
2023/01/25 03:01:14;;;;;;;35.10;15.50;;;;;;;;;;6335074;22;20114;-84
2023/01/25 03:03:40;;;;;;;34.25;14.88;;;;;;;;;;6335654;22;20051;-84
2023/01/25 03:06:07;;;;;;;34.75;15.85;;;;;;;;;;6335570;22;20073;-84
2023/01/25 03:08:34;;;;;;;37.03;16.27;;;;;;;;;;6335126;22;20019;-84
2023/01/25 03:11:02;;;;;;;35.45;15.43;;;;;;;;;;6335369;22;20031;-84
2023/01/25 03:13:28;;;;;;;37.15;15.85;;;;;;;;;;6334619;22;20077;-84
2023/01/25 03:16:03;;;;;;;36.00;15.25;;;;;;;;;;6335128;22;20030;-85
2023/01/25 03:18:30;;;;;;;34.20;15.13;;;;;;;;;;6308085;22;20023;-84
2023/01/25 03:21:02;;;;;;;36.40;16.15;;;;;;;;;;6335174;22;20038;-85
2023/01/25 03:23:29;;;;;;;34.47;15.27;;;;;;;;;;6335160;22;20027;-83
2023/01/25 03:26:02;;;;;;;37.20;16.02;;;;;;;;;;6334740;22;20462;-84
2023/01/25 03:28:29;;;;;;;34.60;15.60;;;;;;;;;;6333797;22;20023;-84
2023/01/25 03:30:55;;;;;;;36.75;16.55;;;;;;;;;;6333144;22;20495;-85
2023/01/25 03:33:21;;;;;;;36.83;16.30;;;;;;;;;;6306728;22;20092;-84
2023/01/25 03:35:54;;;;;;;35.53;14.65;;;;;;;;;;6335397;22;20038;-84
2023/01/25 03:38:21;;;;;;;39.17;16.67;;;;;;;;;;6336770;22;20034;-85
2023/01/25 03:40:47;;;;;;;38.40;15.70;;;;;;;;;;6335964;22;20027;-85
2023/01/25 03:43:14;;;;;;;38.42;16.33;;;;;;;;;;6336043;22;20020;-84
2023/01/25 03:45:40;;;;;;;38.42;15.68;;;;;;;;;;6335905;22;20033;-84
2023/01/25 03:48:07;;;;;;;37.03;15.68;;;;;;;;;;6335626;22;20027;-86
2023/01/25 03:50:33;;;;;;;38.35;15.95;;;;;;;;;;6308789;22;20055;-85
2023/01/25 03:53:06;;;;;;;36.33;16.42;;;;;;;;;;6336765;22;20061;-84
2023/01/25 03:55:33;;;;;;;40.85;16.88;;;;;;;;;;6309002;22;20029;-84
2023/01/25 03:57:59;;;;;;;36.83;15.73;;;;;;;;;;6335697;22;20023;-86
2023/01/25 04:00:26;;;;;;;37.70;16.10;;;;;;;;;;6336002;22;20031;-86
2023/01/25 04:02:52;;;;;;;38.50;15.88;;;;;;;;;;6335696;22;20027;-84
2023/01/25 04:05:19;;;;;;;37.35;15.50;;;;;;;;;;6336498;22;20019;-84
2023/01/25 04:07:45;;;;;;;35.33;16.05;;;;;;;;;;6308556;22;20105;-86
2023/01/25 04:10:12;;;;;;;38.55;15.50;;;;;;;;;;6336286;22;20015;-84
2023/01/25 04:12:38;;;;;;;39.25;15.93;;;;;;;;;;6337242;22;20047;-86
2023/01/25 04:15:05;;;;;;;41.50;16.65;;;;;;;;;;6308981;22;20015;-84
2023/01/25 04:17:31;;;;;;;36.67;15.85;;;;;;;;;;6309435;22;20113;-84
2023/01/25 04:19:57;;;;;;;39.65;16.90;;;;;;;;;;6336798;22;20031;-83
2023/01/25 04:22:24;;;;;;;40.40;17.38;;;;;;;;;;6308770;22;20465;-84
2023/01/25 04:24:51;;;;;;;35.92;15.82;;;;;;;;;;6336147;22;20049;-83
2023/01/25 04:27:17;;;;;;;41.25;17.17;;;;;;;;;;6335923;22;20061;-84
2023/01/25 04:29:44;;;;;;;41.90;17.48;;;;;;;;;;6335989;22;20095;-84
2023/01/25 04:32:10;;;;;;;39.65;17.67;;;;;;;;;;6335968;22;20023;-84
2023/01/25 04:34:36;;;;;;;42.75;17.50;;;;;;;;;;6309560;22;20023;-84
2023/01/25 04:37:03;;;;;;;42.58;17.20;;;;;;;;;;6336362;22;20097;-84
2023/01/25 04:39:32;;;;;;;38.97;16.90;;;;;;;;;;6335635;22;20882;-84
2023/01/25 04:41:58;;;;;;;37.78;15.82;;;;;;;;;;6335968;22;20107;-84
2023/01/25 04:44:25;;;;;;;39.60;16.95;;;;;;;;;;6316430;22;20019;-85
2023/01/25 04:46:51;;;;;;;39.67;16.08;;;;;;;;;;6316232;22;20027;-87
2023/01/25 04:49:18;;;;;;;40.42;17.40;;;;;;;;;;6342780;22;20023;-85
2023/01/25 04:51:44;;;;;;;40.88;17.02;;;;;;;;;;6342458;22;20990;-86
2023/01/25 04:54:10;;;;;;;41.90;16.58;;;;;;;;;;6344432;22;20023;-86
2023/01/25 04:56:37;;;;;;;40.90;16.70;;;;;;;;;;6347130;22;20012;-86
2023/01/25 04:59:03;;;;;;;40.67;16.65;;;;;;;;;;6344900;22;20077;-86
2023/01/25 05:01:32;;;;;;;42.47;16.23;;;;;;;;;;6344292;22;20016;-86
2023/01/25 05:03:58;;;;;;;41.17;17.77;;;;;;;;;;6317032;22;20106;-86
2023/01/25 05:06:25;;;;;;;44.47;17.55;;;;;;;;;;6316042;22;20564;-85
2023/01/25 05:08:51;;;;;;;41.40;16.67;;;;;;;;;;6340934;22;20023;-86
2023/01/25 05:11:18;;;;;;;39.38;15.88;;;;;;;;;;6340853;22;20184;-85
2023/01/25 05:13:44;;;;;;;42.75;17.23;;;;;;;;;;6312120;22;20034;-86
2023/01/25 05:16:10;;;;;;;36.75;16.10;;;;;;;;;;6339971;22;20019;-86
2023/01/25 05:18:37;;;;;;;37.47;16.52;;;;;;;;;;6340672;22;20484;-86
2023/01/25 05:23:58;;;;;;;40.50;17.00;;;;;;;;;;6340872;22;20030;-86
2023/01/25 05:29:10;;;;;;;42.13;16.77;;;;;;;;;;6340539;22;20051;-86
2023/01/25 05:31:36;;;;;;;38.70;16.10;;;;;;;;;;6341614;22;20476;-86
2023/01/25 05:34:03;;;;;;;39.60;17.15;;;;;;;;;;6340724;22;20023;-85
2023/01/25 05:36:29;;;;;;;41.10;16.70;;;;;;;;;;6341048;22;20077;-85
2023/01/25 05:38:56;;;;;;;44.97;18.25;;;;;;;;;;6340409;22;20070;-85
2023/01/25 05:41:22;;;;;;;42.30;17.38;;;;;;;;;;6341191;22;20011;-85
2023/01/25 05:44:04;;;;;;;41.17;17.92;;;;;;;;;;6341107;22;20046;-84
2023/01/25 05:46:30;;;;;;;39.92;17.10;;;;;;;;;;6340878;22;20035;-85
2023/01/25 05:48:57;;;;;;;39.17;16.17;;;;;;;;;;6340649;22;20054;-84
2023/01/25 05:51:23;;;;;;;41.55;16.80;;;;;;;;;;6341486;22;20047;-87
2023/01/25 05:53:50;;;;;;;39.10;16.45;;;;;;;;;;6340311;22;20027;-87
2023/01/25 05:56:16;;;;;;;41.03;17.23;;;;;;;;;;6314150;22;20011;-86
2023/01/25 05:58:42;;;;;;;39.55;17.45;;;;;;;;;;6341198;22;20020;-87
2023/01/25 06:01:11;;;;;;;40.03;18.73;;;;;;;;;;6317077;22;20070;-88
2023/01/25 06:03:37;;;;;;;48.30;18.40;;;;;;;;;;6342025;22;20015;-86
2023/01/25 06:06:05;;;;;;;41.95;18.25;;;;;;;;;;6342237;22;20566;-88
2023/01/25 06:08:36;;;;;;;41.35;17.92;;;;;;;;;;6313968;22;20016;-88
2023/01/25 06:11:19;;;;;;;41.95;17.60;;;;;;;;;;6341966;22;20539;-88
2023/01/25 06:13:45;;;;;;;41.95;17.38;;;;;;;;;;6341524;22;20034;-87
2023/01/25 06:16:12;;;;;;;46.00;18.67;;;;;;;;;;6340676;22;20027;-86
2023/01/25 06:18:38;;;;;;;43.40;18.52;;;;;;;;;;6313791;22;20023;-88
2023/01/25 06:21:05;;;;;;;43.13;18.08;;;;;;;;;;6312471;22;20027;-89
2023/01/25 06:26:33;;;;;;;44.08;18.40;;;;;;;;;;6322282;22;20111;-87
2023/01/25 06:29:00;;;;;;;42.22;18.55;;;;;;;;;;6340900;22;20030;-88
2023/01/25 06:31:26;;;;;;;45.47;19.00;;;;;;;;;;6341864;22;20016;-86
2023/01/25 06:33:53;;;;;;;51.38;20.08;;;;;;;;;;6341241;22;20020;-86
2023/01/25 06:36:20;;;;;;;50.45;20.95;;;;;;;;;;6314330;22;20015;-86
2023/01/25 06:38:48;;;;;;;53.05;22.20;;;;;;;;;;6341731;22;20023;-87
2023/01/25 06:41:15;;;;;;;45.85;18.92;;;;;;;;;;6340917;22;20007;-87
2023/01/25 06:43:41;;;;;;;44.00;18.60;;;;;;;;;;6340560;22;20508;-87
2023/01/25 06:46:10;;;;;;;47.17;19.00;;;;;;;;;;6340490;22;20754;-86
2023/01/25 06:48:37;;;;;;;47.47;19.52;;;;;;;;;;6339487;22;20041;-87
2023/01/25 06:51:05;;;;;;;40.80;17.42;;;;;;;;;;6340767;22;20432;-87
2023/01/25 06:53:32;;;;;;;45.05;18.45;;;;;;;;;;6340839;22;20027;-88
2023/01/25 06:56:04;;;;;;;44.83;18.90;;;;;;;;;;6340932;22;20080;-88
2023/01/25 06:58:30;;;;;;;45.88;18.25;;;;;;;;;;6338833;22;20050;-86
2023/01/25 07:01:01;;;;;;;46.03;18.73;;;;;;;;;;6339827;22;20862;-86
2023/01/25 07:03:31;;;;;;;44.97;18.55;;;;;;;;;;6313430;22;20134;-88
2023/01/25 07:06:02;;;;;;;46.37;18.83;;;;;;;;;;6341272;22;20046;-87
2023/01/25 07:08:28;;;;;;;47.63;19.17;;;;;;;;;;6340654;22;20019;-86
2023/01/25 07:10:55;;;;;;;47.53;19.35;;;;;;;;;;6312326;22;20102;-86
2023/01/25 07:13:22;;;;;;;47.72;18.15;;;;;;;;;;6312161;22;20027;-89
2023/01/25 07:15:56;;;;;;;45.40;18.85;;;;;;;;;;6339919;22;20023;-87
2023/01/25 07:18:23;;;;;;;45.63;19.77;;;;;;;;;;6340316;22;20402;-87
2023/01/25 07:20:50;;;;;;;45.08;18.98;;;;;;;;;;6338252;22;20103;-86
2023/01/25 07:23:17;;;;;;;45.63;19.92;;;;;;;;;;6339341;22;20113;-89
2023/01/25 07:25:45;;;;;;;47.58;19.40;;;;;;;;;;6339238;22;20023;-86
2023/01/25 07:28:11;;;;;;;50.95;21.95;;;;;;;;;;6338263;22;20031;-87
2023/01/25 07:30:38;;;;;;;47.30;19.80;;;;;;;;;;6338912;22;20495;-86
2023/01/25 07:33:05;;;;;;;52.42;21.70;;;;;;;;;;6337570;22;20119;-85
2023/01/25 07:35:31;;;;;;;51.63;19.88;;;;;;;;;;6310155;22;20974;-86
2023/01/25 07:37:58;;;;;;;52.65;21.48;;;;;;;;;;6337619;22;20019;-86
2023/01/25 07:40:27;;;;;;;44.35;19.65;;;;;;;;;;6337721;22;20023;-86
2023/01/25 07:42:53;;;;;;;53.67;20.40;;;;;;;;;;6338422;22;20019;-88
2023/01/25 07:45:19;;;;;;;49.45;19.90;;;;;;;;;;6337658;22;20480;-87
2023/01/25 07:47:46;;;;;;;55.88;22.02;;;;;;;;;;6310419;22;20102;-86
2023/01/25 07:50:12;;;;;;;48.15;19.23;;;;;;;;;;6336355;22;20098;-86
2023/01/25 07:52:40;;;;;;;48.05;19.73;;;;;;;;;;6338385;22;20023;-87
2023/01/25 07:55:07;;;;;;;49.13;19.40;;;;;;;;;;6337358;22;20027;-86
2023/01/25 07:57:33;;;;;;;49.15;21.10;;;;;;;;;;6309232;22;20476;-86
2023/01/25 08:00:00;;;;;;;51.30;20.75;;;;;;;;;;6337252;22;20098;-86
2023/01/25 08:02:27;;;;;;;48.10;19.17;;;;;;;;;;6337716;22;20050;-88
2023/01/25 08:04:53;;;;;;;46.47;18.80;;;;;;;;;;6309235;22;20102;-86
2023/01/25 08:07:22;;;;;;;46.67;18.58;;;;;;;;;;6309300;22;20023;-88
2023/01/25 08:09:48;;;;;;;50.60;21.10;;;;;;;;;;6307323;22;20015;-86
2023/01/25 08:12:16;;;;;;;49.05;18.77;;;;;;;;;;6335680;22;20057;-87
2023/01/25 08:14:43;;;;;;;48.00;19.73;;;;;;;;;;6336598;22;20019;-86
2023/01/25 08:17:09;;;;;;;51.35;19.42;;;;;;;;;;6336499;22;20023;-87
2023/01/25 08:19:35;;;;;;;48.30;18.52;;;;;;;;;;6335777;22;20098;-88
2023/01/25 08:22:02;;;;;;;50.13;19.45;;;;;;;;;;6338871;22;20090;-86
2023/01/25 08:24:28;;;;;;;47.80;18.85;;;;;;;;;;6311220;22;20020;-87
2023/01/25 08:26:55;;;;;;;50.38;18.70;;;;;;;;;;6339697;22;20037;-88
2023/01/25 08:29:22;;;;;;;50.78;20.02;;;;;;;;;;6339691;22;20019;-87
2023/01/25 08:31:48;;;;;;;50.58;19.48;;;;;;;;;;6339495;22;20034;-86
2023/01/25 08:34:15;;;;;;;54.80;21.88;;;;;;;;;;6340864;22;20046;-87
2023/01/25 08:36:41;;;;;;;50.45;19.17;;;;;;;;;;6339344;22;20027;-86
2023/01/25 08:39:09;;;;;;;47.75;18.90;;;;;;;;;;6340101;22;20031;-86
2023/01/25 08:41:36;;;;;;;49.15;20.15;;;;;;;;;;6338715;22;20030;-87
2023/01/25 08:44:02;;;;;;;52.58;20.25;;;;;;;;;;6338579;22;20015;-86
2023/01/25 08:46:30;;;;;;;47.85;20.50;;;;;;;;;;6310949;22;20519;-86
2023/01/25 08:48:58;;;;;;;46.38;19.48;;;;;;;;;;6310718;22;20027;-86
2023/01/25 08:51:24;;;;;;;49.03;19.40;;;;;;;;;;6310282;22;20054;-85
2023/01/25 08:53:51;;;;;;;53.67;18.38;;;;;;;;;;6310400;22;20126;-87
2023/01/25 08:56:17;;;;;;;48.65;18.70;;;;;;;;;;6338728;22;20073;-87
2023/01/25 08:58:45;;;;;;;45.08;17.30;;;;;;;;;;6337181;22;20023;-86
2023/01/25 09:01:12;;;;;;;44.00;17.40;;;;;;;;;;6337465;22;20030;-87
2023/01/25 09:03:46;;;;;;;47.45;18.65;;;;;;;;;;6337777;22;20034;-86
2023/01/25 09:06:12;;;;;;;48.85;17.55;;;;;;;;;;6309113;22;20034;-86
2023/01/25 09:08:39;;;;;;;48.28;18.60;;;;;;;;;;6309186;22;20065;-86
2023/01/25 09:11:07;;;;;;;48.22;18.02;;;;;;;;;;6337444;22;20023;-86
2023/01/25 09:13:33;;;;;;;46.75;19.10;;;;;;;;;;6338529;22;20630;-85
2023/01/25 09:16:00;;;;;;;54.75;19.50;;;;;;;;;;6337757;22;20106;-86
2023/01/25 09:18:28;;;;;;;52.20;19.52;;;;;;;;;;6310127;22;20114;-86
2023/01/25 09:20:54;;;;;;;50.80;19.40;;;;;;;;;;6338018;22;20109;-87
2023/01/25 09:23:22;;;;;;;51.22;19.60;;;;;;;;;;6337570;22;20468;-86
2023/01/25 09:25:58;;;;;;;48.53;17.25;;;;;;;;;;6309300;22;20031;-87
2023/01/25 09:28:25;;;;;;;49.20;19.55;;;;;;;;;;6309421;22;20377;-87
2023/01/25 09:30:58;;;;;;;50.67;20.25;;;;;;;;;;6310135;22;20023;-86
2023/01/25 09:33:45;;;;;;;49.78;19.27;;;;;;;;;;6336692;22;20081;-86
2023/01/25 09:36:11;;;;;;;45.45;17.88;;;;;;;;;;6338418;22;20023;-87
2023/01/25 09:38:40;;;;;;;50.50;19.55;;;;;;;;;;6337675;22;20557;-86
2023/01/25 09:41:19;;;;;;;51.20;21.15;;;;;;;;;;6338974;22;20095;-88
2023/01/25 09:43:58;;;;;;;47.95;18.90;;;;;;;;;;6338676;22;20094;-86
2023/01/25 09:46:38;;;;;;;47.20;19.05;;;;;;;;;;6312066;22;20008;-86
2023/01/25 09:49:23;;;;;;;45.28;19.27;;;;;;;;;;6335662;22;20384;-86
2023/01/25 09:51:59;;;;;;;52.15;19.70;;;;;;;;;;6336710;22;20120;-86
2023/01/25 09:54:27;;;;;;;49.88;19.13;;;;;;;;;;6338564;22;20050;-86
2023/01/25 09:57:00;;;;;;;46.53;19.00;;;;;;;;;;6338307;22;20019;-87
2023/01/25 09:59:53;;;;;;;51.83;20.05;;;;;;;;;;6311782;22;20019;-86
2023/01/25 10:03:03;;;;;;;45.65;18.08;;;;;;;;;;6314669;22;20023;-86
2023/01/25 10:05:33;;;;;;;45.47;18.05;;;;;;;;;;6339706;22;20019;-87
2023/01/25 10:08:13;;;;;;;47.33;19.40;;;;;;;;;;6339443;22;20022;-87
2023/01/25 10:10:49;;;;;;;50.65;19.65;;;;;;;;;;6338860;22;20073;-84
2023/01/25 10:13:19;;;;;;;43.83;16.83;;;;;;;;;;6311094;22;20031;-84
2023/01/25 10:15:47;;;;;;;52.20;19.50;;;;;;;;;;6337812;22;20900;-84
2023/01/25 10:18:17;;;;;;;48.95;18.23;;;;;;;;;;6338035;22;20116;-83
2023/01/25 10:21:00;;;;;;;49.95;19.38;;;;;;;;;;6336496;22;20486;-83
2023/01/25 10:23:48;;;;;;;57.90;21.92;;;;;;;;;;6311020;22;20031;-83
2023/01/25 10:26:28;;;;;;;58.78;22.20;;;;;;;;;;6337980;22;20024;-84
2023/01/25 10:28:55;;;;;;;47.17;19.13;;;;;;;;;;6308826;22;20027;-84
2023/01/25 10:31:36;;;;;;;51.55;19.52;;;;;;;;;;6336368;22;20016;-84
2023/01/25 10:34:12;;;;;;;50.38;18.38;;;;;;;;;;6309162;22;20043;-84
2023/01/25 10:36:43;;;;;;;45.13;18.85;;;;;;;;;;6308830;22;20807;-83
2023/01/25 10:39:09;;;;;;;50.88;19.38;;;;;;;;;;6335575;22;20042;-82
2023/01/25 10:41:39;;;;;;;48.90;18.50;;;;;;;;;;6336356;22;20026;-83
2023/01/25 10:44:22;;;;;;;50.13;18.73;;;;;;;;;;6308918;22;20503;-83
2023/01/25 10:46:49;;;;;;;54.03;20.30;;;;;;;;;;6336507;22;20069;-83
2023/01/25 10:49:20;;;;;;;51.15;19.80;;;;;;;;;;6308690;22;20496;-84
2023/01/25 10:51:50;;;;;;;54.67;20.10;;;;;;;;;;6308842;22;20051;-83
2023/01/25 10:54:19;;;;;;;54.40;21.30;;;;;;;;;;6336856;22;20035;-84
2023/01/25 10:56:49;;;;;;;49.67;19.63;;;;;;;;;;6309560;22;20484;-83
2023/01/25 10:59:21;;;;;;;48.03;18.38;;;;;;;;;;6307765;22;20023;-86
2023/01/25 11:01:47;;;;;;;51.60;20.65;;;;;;;;;;6335574;22;20030;-83
2023/01/25 11:04:21;;;;;;;53.05;19.58;;;;;;;;;;6334700;22;20484;-84
2023/01/25 11:06:50;;;;;;;51.50;20.65;;;;;;;;;;6335925;22;20972;-83
2023/01/25 11:09:19;;;;;;;48.28;19.13;;;;;;;;;;6308094;22;20502;-83
2023/01/25 11:11:57;;;;;;;50.80;18.33;;;;;;;;;;6337518;22;20030;-83
2023/01/25 11:14:27;;;;;;;53.78;19.95;;;;;;;;;;6337245;22;20051;-84
2023/01/25 11:16:55;;;;;;;54.33;20.85;;;;;;;;;;6308692;22;20840;-83
2023/01/25 11:19:39;;;;;;;58.42;21.20;;;;;;;;;;6334813;22;20027;-83
2023/01/25 11:22:27;;;;;;;49.60;19.63;;;;;;;;;;6334859;22;20030;-83
2023/01/25 11:24:53;;;;;;;50.90;20.27;;;;;;;;;;6335344;22;20488;-84
2023/01/25 11:27:21;;;;;;;52.95;20.40;;;;;;;;;;6334829;22;20102;-83
2023/01/25 11:30:06;;;;;;;52.75;20.20;;;;;;;;;;6335898;22;20023;-83
2023/01/25 11:32:33;;;;;;;52.95;18.67;;;;;;;;;;6335446;22;20092;-84
2023/01/25 11:35:00;;;;;;;50.08;18.27;;;;;;;;;;6335145;22;20503;-84
2023/01/25 11:37:29;;;;;;;52.03;19.08;;;;;;;;;;6307391;22;20503;-83
2023/01/25 11:39:55;;;;;;;47.33;18.45;;;;;;;;;;6334455;22;20023;-83
2023/01/25 11:42:46;;;;;;;49.35;19.35;;;;;;;;;;6335129;22;20705;-83
2023/01/25 11:45:21;;;;;;;50.25;18.15;;;;;;;;;;6334786;22;20468;-83
2023/01/25 11:48:14;;;;;;;49.92;19.00;;;;;;;;;;6334863;22;20500;-83
2023/01/25 11:50:58;;;;;;;51.33;19.48;;;;;;;;;;6327664;22;20023;-84
2023/01/25 11:53:43;;;;;;;46.08;17.60;;;;;;;;;;6335064;22;20034;-84
2023/01/25 11:56:14;;;;;;;51.40;19.48;;;;;;;;;;6307600;22;20359;-83
2023/01/25 11:58:47;;;;;;;51.65;18.52;;;;;;;;;;6309059;22;20204;-83
2023/01/25 12:01:36;;;;;;;46.53;18.17;;;;;;;;;;6335342;22;20023;-84
2023/01/25 12:04:03;;;;;;;46.50;18.17;;;;;;;;;;6336315;22;20106;-84
2023/01/25 12:06:34;;;;;;;50.22;19.30;;;;;;;;;;6335971;22;20023;-84
2023/01/25 12:09:13;;;;;;;51.00;18.55;;;;;;;;;;6336203;22;20024;-83
2023/01/25 12:11:39;;;;;;;51.05;18.05;;;;;;;;;;6335390;22;20030;-84
2023/01/25 12:14:21;;;;;;;45.20;17.55;;;;;;;;;;6307520;22;20502;-85
2023/01/25 12:16:50;;;;;;;51.92;19.30;;;;;;;;;;6334608;22;20460;-83
2023/01/25 12:19:27;;;;;;;49.92;18.35;;;;;;;;;;6334545;22;20020;-84
2023/01/25 12:22:13;;;;;;;44.55;16.60;;;;;;;;;;6335904;22;20073;-83
2023/01/25 12:24:46;;;;;;;49.00;19.05;;;;;;;;;;6334554;22;20054;-83
2023/01/25 12:27:31;;;;;;;47.08;18.65;;;;;;;;;;6334862;22;20208;-84
2023/01/25 12:30:17;;;;;;;48.55;18.55;;;;;;;;;;6336796;22;20033;-84
2023/01/25 12:32:57;;;;;;;42.38;15.40;;;;;;;;;;6233228;22;20030;-83
2023/01/25 12:35:40;;;;;;;47.17;18.90;;;;;;;;;;6337986;22;20033;-85
2023/01/25 12:38:12;;;;;;;50.28;19.55;;;;;;;;;;6338480;22;20016;-84
2023/01/25 12:40:48;;;;;;;49.55;18.58;;;;;;;;;;6337558;22;20833;-84
2023/01/25 12:43:17;;;;;;;58.15;18.58;;;;;;;;;;6339109;22;20027;-83
2023/01/25 12:45:44;;;;;;;49.53;18.75;;;;;;;;;;6337404;22;20046;-84
2023/01/25 12:48:15;;;;;;;47.40;20.38;;;;;;;;;;6308201;22;20472;-84
2023/01/25 12:50:49;;;;;;;46.95;18.73;;;;;;;;;;6337406;22;20089;-84
2023/01/25 12:53:34;;;;;;;49.15;20.05;;;;;;;;;;6337313;22;20515;-85
2023/01/25 12:56:01;;;;;;;49.38;18.17;;;;;;;;;;6309808;22;20031;-84
2023/01/25 12:58:30;;;;;;;53.08;18.77;;;;;;;;;;6336645;22;20023;-84
2023/01/25 13:01:09;;;;;;;44.88;18.63;;;;;;;;;;6338106;22;20432;-84
2023/01/25 13:03:55;;;;;;;45.10;17.50;;;;;;;;;;6309266;22;20104;-83
2023/01/25 13:06:30;;;;;;;45.15;18.75;;;;;;;;;;6338259;22;20157;-84
2023/01/25 13:08:56;;;;;;;52.05;18.00;;;;;;;;;;6336457;22;20027;-84
2023/01/25 13:11:26;;;;;;;51.47;18.70;;;;;;;;;;6339076;22;20076;-84
2023/01/25 13:14:12;;;;;;;50.35;18.63;;;;;;;;;;6338184;22;20043;-83
2023/01/25 13:16:40;;;;;;;51.30;19.10;;;;;;;;;;6337872;22;20471;-83
2023/01/25 13:19:17;;;;;;;55.92;21.05;;;;;;;;;;6308704;22;20019;-83
2023/01/25 13:21:45;;;;;;;52.63;21.08;;;;;;;;;;6336713;22;20023;-84
2023/01/25 13:24:16;;;;;;;53.42;19.38;;;;;;;;;;6337694;22;20149;-83
2023/01/25 13:26:56;;;;;;;58.28;23.48;;;;;;;;;;6336207;22;20030;-83
2023/01/25 13:29:31;;;;;;;56.20;21.80;;;;;;;;;;6339058;22;20037;-83
2023/01/25 13:31:58;;;;;;;54.85;21.08;;;;;;;;;;6309710;22;20067;-84
2023/01/25 13:34:38;;;;;;;55.80;22.05;;;;;;;;;;6310012;22;20023;-83
2023/01/25 13:37:21;;;;;;;76.60;34.28;;;;;;;;;;6338581;22;20028;-84
2023/01/25 13:39:48;;;;;;;55.67;20.05;;;;;;;;;;6336102;22;20019;-83
2023/01/25 13:42:18;;;;;;;50.63;19.13;;;;;;;;;;6337887;22;20090;-83
2023/01/25 13:44:45;;;;;;;55.47;20.63;;;;;;;;;;6309894;22;20038;-84
2023/01/25 13:47:16;;;;;;;63.15;22.20;;;;;;;;;;6337017;22;20234;-84
2023/01/25 13:49:53;;;;;;;56.53;19.08;;;;;;;;;;6338342;22;20091;-84
2023/01/25 13:52:24;;;;;;;57.13;20.90;;;;;;;;;;6337959;22;20023;-83
2023/01/25 13:54:53;;;;;;;60.50;22.23;;;;;;;;;;6308882;22;20023;-84
2023/01/25 13:57:26;;;;;;;61.63;22.10;;;;;;;;;;6338114;22;20034;-85
2023/01/25 14:00:02;;;;;;;58.83;21.77;;;;;;;;;;6337519;22;20081;-84
2023/01/25 14:02:37;;;;;;;57.03;21.33;;;;;;;;;;6337070;22;20027;-84
2023/01/25 14:05:04;;;;;;;60.05;21.30;;;;;;;;;;6335144;22;20114;-83
2023/01/25 14:07:35;;;;;;;56.10;20.13;;;;;;;;;;6310497;22;20522;-83
2023/01/25 14:10:08;;;;;;;56.95;20.85;;;;;;;;;;6336373;22;20023;-85
2023/01/25 14:12:37;;;;;;;52.33;19.55;;;;;;;;;;6308021;22;20027;-83
2023/01/25 14:15:16;;;;;;;56.58;21.70;;;;;;;;;;6338051;22;20474;-84
2023/01/25 14:17:43;;;;;;;59.60;19.60;;;;;;;;;;6336680;22;20090;-84
2023/01/25 14:20:16;;;;;;;60.00;20.90;;;;;;;;;;6309762;22;20026;-83
2023/01/25 14:22:46;;;;;;;57.50;20.25;;;;;;;;;;6336788;22;20507;-84
2023/01/25 14:25:19;;;;;;;64.93;22.30;;;;;;;;;;6335453;22;20027;-84
2023/01/25 14:27:49;;;;;;;60.63;21.52;;;;;;;;;;6308906;22;20488;-84
2023/01/25 14:30:24;;;;;;;57.88;20.92;;;;;;;;;;6338251;22;20364;-83
2023/01/25 14:32:52;;;;;;;64.38;20.67;;;;;;;;;;6337078;22;20055;-84
2023/01/25 14:35:36;;;;;;;55.17;19.92;;;;;;;;;;6310318;22;20055;-84
2023/01/25 14:38:21;;;;;;;51.33;19.17;;;;;;;;;;6339491;22;20027;-84
2023/01/25 14:40:48;;;;;;;54.80;20.40;;;;;;;;;;6339015;22;20026;-85
2023/01/25 14:43:15;;;;;;;58.60;21.13;;;;;;;;;;6338433;22;20023;-84